In Rescue
 
Open Full Screen Window  High Contrast Mode
Wind Gusting 00 knots
10
March 04, 2021 5:13 AM EST
Weather Information
Wind Direction
  330 °
Wind Speed
  10 kt (12 mph)
Wind Gust
  00 kt (0 mph)
Altimeter
30.12 in
Visibility
10 SM
Temperature
00° C
32° F
Dewpoint
-04° C
25° F
Humidity
75%
Sky Condition
Overcast @ 2,000 ft
MVFR

METAR KVLL 041013Z AUTO 33010KT 10SM OVC020 00/M04 A3012 RMK AO2 T00001039

FAA Disclaimer: The data displayed is for advisory purposes only and is not to be used for flight planning or operations.